Time;durP1;ratioP1;P1;durP2;ratioP2;P2;SDS_P1;SDS_P2;PMS_P1;PMS_P2;Temp;Humidity;BMP_temperature;BMP_pressure;BME280_temperature;BME280_humidity;BME280_pressure;Samples;Min_cycle;Max_cycle;Signal;HPM_P1;HPM_P2
2022/03/03 00:01:44;;;;;;;2.78;0.70;;;2.30;99.90;;;;;;4953404;28;20388;-71
2022/03/03 00:04:10;;;;;;;3.22;0.85;;;2.20;99.90;;;;;;4953586;28;20063;-71
2022/03/03 00:06:37;;;;;;;2.75;0.85;;;2.20;99.90;;;;;;4953541;28;20043;-71
2022/03/03 00:09:04;;;;;;;2.28;0.70;;;2.20;99.90;;;;;;4953460;28;20419;-71
2022/03/03 00:11:30;;;;;;;1.90;0.70;;;2.20;99.90;;;;;;4953219;28;20030;-71
2022/03/03 00:13:57;;;;;;;1.58;0.80;;;2.10;99.90;;;;;;4953840;28;20039;-71
2022/03/03 00:16:23;;;;;;;1.55;0.88;;;2.10;99.90;;;;;;4956781;28;20507;-71
2022/03/03 00:18:49;;;;;;;4.00;0.90;;;2.00;99.90;;;;;;4956964;28;20061;-71
2022/03/03 00:21:14;;;;;;;1.85;0.80;;;1.90;99.90;;;;;;4956794;29;20066;-70
2022/03/03 00:23:40;;;;;;;3.10;0.77;;;1.80;99.90;;;;;;4956769;29;20473;-70
2022/03/03 00:26:06;;;;;;;1.88;0.65;;;1.80;99.90;;;;;;4956757;28;20031;-70
2022/03/03 00:28:32;;;;;;;4.07;0.90;;;1.80;99.90;;;;;;4956724;28;20028;-70
2022/03/03 00:30:58;;;;;;;1.38;0.73;;;1.80;99.90;;;;;;4956973;29;20106;-71
2022/03/03 00:33:23;;;;;;;4.03;0.80;;;1.80;99.90;;;;;;4956554;28;20035;-70
2022/03/03 00:35:50;;;;;;;1.95;0.80;;;1.80;99.90;;;;;;4956503;28;20027;-70
2022/03/03 00:38:16;;;;;;;1.20;0.82;;;1.70;99.90;;;;;;4956132;29;20059;-70
2022/03/03 00:40:42;;;;;;;1.52;0.82;;;1.80;99.90;;;;;;4956578;28;20105;-71
2022/03/03 00:43:08;;;;;;;2.13;0.63;;;1.80;99.90;;;;;;4956470;28;20155;-70
2022/03/03 00:45:34;;;;;;;1.55;0.73;;;1.80;99.90;;;;;;4956426;28;20086;-71
2022/03/03 00:48:00;;;;;;;2.45;0.82;;;1.80;99.90;;;;;;4956552;28;20031;-72
2022/03/03 00:50:27;;;;;;;2.90;0.80;;;1.70;99.90;;;;;;4956498;28;20038;-72
2022/03/03 00:52:53;;;;;;;5.13;0.75;;;1.60;99.90;;;;;;4956325;28;20054;-72
2022/03/03 00:55:18;;;;;;;1.63;0.80;;;1.50;99.90;;;;;;4955064;29;20126;-72
2022/03/03 00:57:44;;;;;;;2.47;0.80;;;1.60;99.90;;;;;;4956151;29;20027;-72
2022/03/03 01:00:10;;;;;;;2.35;0.70;;;1.60;99.90;;;;;;4956421;29;20031;-72
2022/03/03 01:02:36;;;;;;;2.00;1.00;;;1.60;99.90;;;;;;4956544;28;20031;-71
2022/03/03 01:05:02;;;;;;;2.97;1.00;;;1.60;99.90;;;;;;4956455;29;20110;-71
2022/03/03 01:07:28;;;;;;;2.05;0.70;;;1.60;99.90;;;;;;4955817;28;20032;-72
2022/03/03 01:09:54;;;;;;;1.70;0.70;;;1.60;99.90;;;;;;4956300;28;20031;-72
2022/03/03 01:12:20;;;;;;;3.22;0.90;;;1.60;99.90;;;;;;4949721;29;20094;-72
2022/03/03 01:14:47;;;;;;;3.70;0.85;;;1.60;99.90;;;;;;4956166;29;20039;-71
2022/03/03 01:17:13;;;;;;;4.07;1.00;;;1.60;99.90;;;;;;4955921;28;20031;-71
2022/03/03 01:19:40;;;;;;;1.52;0.88;;;1.50;99.90;;;;;;4956110;28;20110;-72
2022/03/03 01:22:06;;;;;;;1.40;0.80;;;1.40;99.90;;;;;;4956004;28;20114;-71
2022/03/03 01:24:31;;;;;;;2.83;0.77;;;1.40;99.90;;;;;;4955529;28;20571;-71
2022/03/03 01:26:57;;;;;;;2.45;0.70;;;1.30;99.90;;;;;;4954860;28;20038;-72
2022/03/03 01:29:24;;;;;;;1.23;0.70;;;1.30;99.90;;;;;;4955544;28;20034;-72
2022/03/03 01:31:50;;;;;;;6.43;0.90;;;1.30;99.90;;;;;;4955632;28;20061;-72
2022/03/03 01:34:15;;;;;;;0.80;0.80;;;1.30;99.90;;;;;;4955601;28;20448;-72
2022/03/03 01:36:41;;;;;;;2.70;0.75;;;1.30;99.90;;;;;;4955335;28;20054;-72
2022/03/03 01:39:07;;;;;;;2.08;0.90;;;1.40;99.90;;;;;;4955391;28;20126;-71
2022/03/03 01:41:34;;;;;;;2.63;0.82;;;1.30;99.90;;;;;;4955322;28;20368;-75
2022/03/03 01:44:00;;;;;;;2.45;0.82;;;1.20;99.90;;;;;;4955580;28;20027;-75
2022/03/03 01:46:25;;;;;;;3.35;1.10;;;1.20;99.90;;;;;;4955159;28;20058;-72
2022/03/03 01:48:51;;;;;;;1.63;0.70;;;1.20;99.90;;;;;;4955167;28;20031;-72
2022/03/03 01:51:17;;;;;;;2.63;0.90;;;1.10;99.90;;;;;;4955071;29;20031;-72
2022/03/03 01:53:43;;;;;;;2.22;0.98;;;1.00;99.90;;;;;;4955150;29;20026;-72
2022/03/03 01:56:09;;;;;;;1.98;0.88;;;1.00;99.90;;;;;;4955051;29;20479;-72
2022/03/03 01:58:37;;;;;;;3.60;1.33;;;0.90;99.90;;;;;;4954952;28;20106;-72
2022/03/03 02:01:03;;;;;;;2.38;0.95;;;0.90;99.90;;;;;;4955038;28;20121;-72
2022/03/03 02:03:29;;;;;;;1.27;0.88;;;1.00;99.90;;;;;;4954783;28;20027;-72
2022/03/03 02:05:55;;;;;;;3.15;0.95;;;1.00;99.90;;;;;;4954911;28;20483;-71
2022/03/03 02:08:22;;;;;;;3.95;0.90;;;1.00;99.90;;;;;;4953523;29;20035;-73
2022/03/03 02:10:48;;;;;;;3.40;1.00;;;1.00;99.90;;;;;;4954894;28;20030;-72
2022/03/03 02:13:14;;;;;;;3.72;1.40;;;1.00;99.90;;;;;;4954711;29;20461;-73
2022/03/03 02:15:47;;;;;;;3.67;0.80;;;0.90;99.90;;;;;;4954777;28;20020;-74
2022/03/03 02:18:13;;;;;;;5.28;1.27;;;0.90;99.90;;;;;;4954689;28;20055;-74
2022/03/03 02:20:38;;;;;;;2.67;1.13;;;0.90;99.90;;;;;;4954739;29;20060;-73
2022/03/03 02:23:04;;;;;;;5.20;0.98;;;0.90;99.90;;;;;;4953411;29;20027;-73
2022/03/03 02:54:34;;;;;;;5.05;1.30;;;0.60;99.90;;;;;;4953234;29;20055;-71
2022/03/03 02:59:43;;;;;;;3.03;1.30;;;0.60;99.90;;;;;;4954124;29;20178;-71
2022/03/03 03:02:09;;;;;;;3.65;1.20;;;0.60;99.90;;;;;;4953959;28;20106;-71
2022/03/03 03:38:14;;;;;;;8.43;1.20;;;0.40;99.90;;;;;;5232870;23;20448;-72
2022/03/03 03:40:40;;;;;;;4.32;1.08;;;0.40;99.90;;;;;;4973074;28;20046;-74
2022/03/03 03:43:06;;;;;;;5.97;1.00;;;0.40;99.90;;;;;;4972996;28;20023;-73
2022/03/03 03:45:34;;;;;;;3.50;0.90;;;0.40;99.90;;;;;;4973435;28;20031;-73
2022/03/03 03:47:59;;;;;;;5.15;1.30;;;0.40;99.90;;;;;;4972912;28;20063;-73
2022/03/03 03:50:26;;;;;;;5.35;1.20;;;0.40;99.90;;;;;;4976029;28;20065;-73
2022/03/03 03:52:52;;;;;;;4.88;1.02;;;0.40;99.90;;;;;;4976723;28;20046;-73
2022/03/03 03:55:18;;;;;;;6.35;1.30;;;0.40;99.90;;;;;;4976673;28;20058;-73
2022/03/03 03:57:43;;;;;;;4.32;1.20;;;0.40;99.90;;;;;;4976891;28;20030;-73
2022/03/03 04:00:13;;;;;;;3.35;1.40;;;0.40;99.90;;;;;;4976810;28;20102;-73
2022/03/03 04:02:44;;;;;;;2.78;1.23;;;0.40;99.90;;;;;;4977146;28;20073;-74
2022/03/03 04:05:10;;;;;;;8.25;1.40;;;0.30;99.90;;;;;;4976534;28;20027;-73
2022/03/03 04:07:37;;;;;;;6.47;1.20;;;0.30;99.90;;;;;;4976440;28;20031;-73
2022/03/03 04:10:04;;;;;;;3.35;1.10;;;0.20;99.90;;;;;;4976350;28;20034;-73
2022/03/03 04:12:29;;;;;;;5.60;1.30;;;0.10;99.90;;;;;;4976656;28;20398;-73
2022/03/03 04:14:55;;;;;;;4.53;1.40;;;0.10;99.90;;;;;;4976371;28;20034;-73
2022/03/03 04:17:21;;;;;;;3.15;1.35;;;0.00;99.90;;;;;;4976410;28;20022;-73
2022/03/03 04:19:47;;;;;;;7.60;1.08;;;0.00;99.90;;;;;;4976221;28;20101;-73
2022/03/03 04:22:12;;;;;;;3.83;1.13;;;0.00;99.90;;;;;;4976266;28;20027;-73
2022/03/03 04:24:38;;;;;;;5.57;1.25;;;0.00;99.90;;;;;;4976154;28;20406;-72
2022/03/03 04:27:04;;;;;;;4.13;1.48;;;-0.10;99.90;;;;;;4975902;28;20035;-72
2022/03/03 04:29:30;;;;;;;2.92;1.00;;;-0.10;99.90;;;;;;4976013;28;20378;-73
2022/03/03 04:31:57;;;;;;;10.38;1.33;;;-0.20;99.90;;;;;;4975998;28;20030;-73
2022/03/03 04:34:25;;;;;;;4.43;1.05;;;-0.20;99.90;;;;;;4976083;28;20034;-73
2022/03/03 04:36:51;;;;;;;5.20;0.90;;;-0.30;99.90;;;;;;4975884;28;20133;-72
2022/03/03 04:39:17;;;;;;;4.28;1.20;;;-0.30;99.90;;;;;;4976076;28;20026;-72
2022/03/03 04:41:43;;;;;;;6.18;0.95;;;-0.30;99.90;;;;;;4975875;28;20054;-72
2022/03/03 04:44:08;;;;;;;4.15;1.30;;;-0.30;99.90;;;;;;4975698;28;20059;-72
2022/03/03 04:46:34;;;;;;;4.75;1.23;;;-0.30;99.90;;;;;;4975636;28;20470;-72
2022/03/03 04:49:01;;;;;;;6.85;1.60;;;-0.30;99.90;;;;;;4975673;28;20031;-72
2022/03/03 04:51:31;;;;;;;4.03;1.27;;;-0.40;99.90;;;;;;4976012;28;20038;-72
2022/03/03 04:53:57;;;;;;;6.70;1.60;;;-0.50;99.90;;;;;;4975564;28;20035;-72
2022/03/03 04:56:23;;;;;;;4.00;1.30;;;-0.60;99.90;;;;;;4975494;28;20386;-72
2022/03/03 04:58:49;;;;;;;6.18;1.40;;;-0.60;99.90;;;;;;4975755;28;20033;-72
2022/03/03 05:01:16;;;;;;;5.88;1.15;;;-0.60;99.90;;;;;;4972866;28;20033;-72
2022/03/03 05:03:42;;;;;;;4.70;1.30;;;-0.70;99.90;;;;;;4975617;28;20038;-71
2022/03/03 05:06:07;;;;;;;4.53;1.35;;;-0.80;99.90;;;;;;4975138;28;20386;-71
2022/03/03 05:08:33;;;;;;;5.30;1.20;;;-0.90;99.90;;;;;;4975292;28;20042;-71
2022/03/03 05:10:59;;;;;;;8.32;2.00;;;-0.90;99.90;;;;;;4975314;28;20030;-71
2022/03/03 05:13:24;;;;;;;5.57;1.10;;;-1.00;99.90;;;;;;4975411;28;20022;-71
2022/03/03 05:15:50;;;;;;;4.13;1.20;;;-1.00;99.90;;;;;;4975337;28;20030;-71
2022/03/03 05:18:16;;;;;;;6.05;1.40;;;-1.00;99.90;;;;;;4975007;28;20085;-71
2022/03/03 05:20:41;;;;;;;5.75;1.48;;;-1.10;99.90;;;;;;4975413;28;20070;-71
2022/03/03 05:23:07;;;;;;;6.38;1.40;;;-1.10;99.90;;;;;;4975171;28;20465;-72
2022/03/03 05:25:34;;;;;;;4.97;1.40;;;-1.10;99.90;;;;;;4975048;28;20081;-71
2022/03/03 05:28:00;;;;;;;2.47;1.25;;;-1.20;99.90;;;;;;4974916;28;20026;-71
2022/03/03 05:30:26;;;;;;;7.63;1.42;;;-1.20;99.90;;;;;;4975073;28;20117;-68
2022/03/03 05:32:52;;;;;;;4.80;1.40;;;-1.20;99.90;;;;;;4975113;28;20452;-68
2022/03/03 05:35:18;;;;;;;5.43;1.50;;;-1.20;99.90;;;;;;4974738;28;20034;-64
2022/03/03 05:37:45;;;;;;;3.25;1.05;;;-1.10;99.90;;;;;;4974323;28;20054;-65
2022/03/03 05:40:11;;;;;;;10.63;1.30;;;1.50;99.90;;;;;;4974910;28;20026;-67
2022/03/03 05:42:37;;;;;;;4.57;1.30;;;4.10;99.90;;;;;;4973043;28;20023;-68
2022/03/03 05:45:03;;;;;;;2.80;1.15;;;4.50;99.90;;;;;;4955031;28;20455;-68
2022/03/03 05:47:30;;;;;;;3.58;1.20;;;3.60;99.90;;;;;;4955110;28;20453;-67
2022/03/03 05:49:57;;;;;;;5.72;1.35;;;2.80;99.20;;;;;;4966051;28;20486;-68
2022/03/03 05:52:23;;;;;;;4.47;1.33;;;1.90;96.90;;;;;;4973256;28;20058;-74
2022/03/03 05:54:48;;;;;;;8.48;1.48;;;1.10;97.80;;;;;;4970974;28;20050;-74
2022/03/03 05:57:21;;;;;;;5.70;1.60;;;0.70;99.50;;;;;;4968196;28;20041;-67
2022/03/03 05:59:50;;;;;;;8.55;2.17;;;0.30;99.90;;;;;;4964816;28;20549;-67
2022/03/03 06:02:19;;;;;;;7.37;1.47;;;0.10;99.90;;;;;;4963653;28;20474;-67
2022/03/03 06:04:48;;;;;;;7.30;1.33;;;-0.10;99.90;;;;;;4970963;28;20035;-66
2022/03/03 06:07:25;;;;;;;4.30;1.40;;;-0.30;99.90;;;;;;4969351;28;20444;-67
2022/03/03 06:09:56;;;;;;;5.72;1.35;;;-0.40;99.90;;;;;;4970234;28;20027;-67
2022/03/03 06:12:47;;;;;;;6.63;1.77;;;-0.50;99.90;;;;;;4970918;28;20069;-67
2022/03/03 06:15:13;;;;;;;6.32;1.55;;;-0.50;99.90;;;;;;4964772;28;20063;-67
2022/03/03 06:17:44;;;;;;;5.72;1.33;;;-0.50;99.90;;;;;;4970445;28;20105;-67
2022/03/03 06:20:12;;;;;;;4.13;1.40;;;-0.50;99.90;;;;;;4973394;28;20026;-66
2022/03/03 06:22:38;;;;;;;6.72;1.58;;;-0.50;99.90;;;;;;4974184;28;20031;-68
2022/03/03 06:25:05;;;;;;;6.03;1.73;;;-0.40;99.90;;;;;;4973987;28;20382;-68
2022/03/03 06:27:32;;;;;;;3.97;1.38;;;-0.20;99.90;;;;;;4973686;28;20496;-72
2022/03/03 06:29:58;;;;;;;15.30;1.65;;;-0.20;99.90;;;;;;4973915;28;20102;-67
2022/03/03 06:32:24;;;;;;;7.13;1.23;;;-0.20;99.90;;;;;;4973843;28;20495;-67
2022/03/03 06:34:50;;;;;;;5.65;1.60;;;-0.10;99.90;;;;;;4973705;28;20023;-67
2022/03/03 06:37:15;;;;;;;6.80;1.30;;;-0.10;99.90;;;;;;4973511;28;20058;-68
2022/03/03 06:39:41;;;;;;;6.88;1.35;;;0.10;99.90;;;;;;4973836;28;20031;-67
2022/03/03 06:42:07;;;;;;;9.77;1.50;;;0.10;99.90;;;;;;4973984;28;20030;-67
2022/03/03 06:44:34;;;;;;;5.32;1.30;;;0.00;99.90;;;;;;4973650;28;20100;-67
2022/03/03 06:47:00;;;;;;;2.95;1.30;;;0.00;99.90;;;;;;4973459;28;20031;-67
2022/03/03 06:49:26;;;;;;;9.57;1.70;;;-0.10;99.90;;;;;;4973551;28;20030;-67
2022/03/03 06:51:55;;;;;;;3.78;1.40;;;-0.10;99.90;;;;;;4973521;28;20125;-68
2022/03/03 06:54:23;;;;;;;9.45;1.77;;;-0.20;99.90;;;;;;4973260;28;20055;-68
2022/03/03 06:56:56;;;;;;;4.13;1.30;;;-0.30;99.90;;;;;;4973381;28;20023;-67
2022/03/03 06:59:34;;;;;;;3.80;1.25;;;-0.40;99.90;;;;;;4973296;28;20019;-67
2022/03/03 07:02:01;;;;;;;6.15;1.48;;;-0.40;99.90;;;;;;4973646;28;20037;-67
2022/03/03 07:04:29;;;;;;;6.28;1.27;;;-0.30;99.90;;;;;;4973212;28;20086;-67
2022/03/03 07:06:55;;;;;;;3.10;1.05;;;-0.10;99.90;;;;;;4973477;28;20049;-67
2022/03/03 07:09:21;;;;;;;10.95;2.50;;;-0.20;99.90;;;;;;4973050;28;20023;-67
2022/03/03 07:11:49;;;;;;;4.15;1.63;;;-0.30;99.90;;;;;;4973209;28;20033;-67
2022/03/03 07:14:15;;;;;;;10.93;1.95;;;-0.40;99.90;;;;;;4973227;28;20106;-67
2022/03/03 07:17:05;;;;;;;2.80;1.33;;;-0.50;99.90;;;;;;4973459;28;20023;-66
2022/03/03 07:19:37;;;;;;;13.55;5.65;;;-0.50;99.90;;;;;;4972606;28;20034;-66
2022/03/03 07:22:19;;;;;;;5.88;1.48;;;-0.50;99.90;;;;;;4949621;28;20082;-66
2022/03/03 07:25:15;;;;;;;5.20;1.73;;;-0.50;99.90;;;;;;4933687;29;20028;-67
2022/03/03 07:27:44;;;;;;;5.32;2.40;;;-0.50;99.90;;;;;;4925559;29;20091;-67
2022/03/03 07:30:15;;;;;;;8.93;1.73;;;-0.50;99.90;;;;;;4946963;29;20036;-67
2022/03/03 07:33:20;;;;;;;5.50;1.80;;;-0.50;99.90;;;;;;4946710;28;20507;-66
2022/03/03 07:35:50;;;;;;;3.83;1.65;;;-0.50;99.90;;;;;;4946571;29;20054;-66
2022/03/03 07:38:19;;;;;;;6.60;1.85;;;-0.40;99.90;;;;;;4936673;28;20577;-68
2022/03/03 07:40:47;;;;;;;3.35;1.42;;;-0.40;99.90;;;;;;4946196;28;20094;-66
2022/03/03 07:43:14;;;;;;;5.30;1.45;;;-0.40;99.90;;;;;;4944682;29;20027;-65
2022/03/03 07:45:41;;;;;;;7.07;1.17;;;-0.40;99.90;;;;;;4940764;28;20035;-65
2022/03/03 07:48:07;;;;;;;2.75;1.17;;;-0.30;99.90;;;;;;4937875;29;20042;-64
2022/03/03 07:50:39;;;;;;;7.00;1.35;;;-0.30;99.90;;;;;;4945815;28;20020;-65
2022/03/03 07:53:10;;;;;;;5.40;1.30;;;0.50;99.90;;;;;;4933947;29;20039;-65
2022/03/03 07:55:54;;;;;;;4.13;1.10;;;0.70;99.90;;;;;;4950078;29;20060;-67
2022/03/03 07:58:22;;;;;;;4.75;1.08;;;0.50;99.90;;;;;;4939389;29;20031;-68
2022/03/03 08:00:50;;;;;;;7.43;1.13;;;0.50;99.90;;;;;;4943736;28;20063;-69
2022/03/03 08:03:21;;;;;;;3.97;1.10;;;1.20;99.90;;;;;;4946658;29;20035;-69
2022/03/03 08:05:56;;;;;;;4.57;1.25;;;2.20;99.90;;;;;;4937090;29;20062;-69
2022/03/03 08:08:25;;;;;;;4.85;1.40;;;2.70;99.90;;;;;;4963563;28;21005;-67
2022/03/03 08:11:05;;;;;;;0.75;0.70;;;3.10;99.90;;;;;;4962897;28;20062;-67
2022/03/03 08:13:31;;;;;;;5.28;1.20;;;3.40;99.90;;;;;;4965425;28;20031;-64
2022/03/03 08:15:58;;;;;;;2.63;1.20;;;3.60;99.90;;;;;;4951233;28;20035;-70
2022/03/03 08:18:29;;;;;;;2.80;0.93;;;3.10;93.70;;;;;;4953060;28;20031;-71
2022/03/03 08:20:56;;;;;;;2.97;0.75;;;2.50;92.30;;;;;;4953315;28;20074;-70
2022/03/03 08:23:25;;;;;;;4.22;1.00;;;2.00;92.50;;;;;;4953323;28;20031;-70
2022/03/03 08:25:54;;;;;;;6.85;1.00;;;1.70;93.30;;;;;;4953311;28;20023;-70
2022/03/03 08:28:23;;;;;;;1.98;0.90;;;1.60;94.20;;;;;;4953018;28;20031;-70
2022/03/03 08:31:01;;;;;;;5.38;1.20;;;1.50;94.80;;;;;;4951966;29;20027;-70
2022/03/03 08:33:51;;;;;;;2.30;0.95;;;1.40;94.70;;;;;;4952944;28;20499;-69
2022/03/03 08:36:28;;;;;;;2.25;0.80;;;1.40;94.80;;;;;;4955718;28;20118;-68
2022/03/03 08:39:00;;;;;;;2.05;0.90;;;1.30;94.40;;;;;;4963766;28;20055;-67
2022/03/03 08:41:28;;;;;;;3.00;0.70;;;1.30;94.40;;;;;;4955959;28;20023;-67
2022/03/03 08:43:55;;;;;;;1.67;0.80;;;1.30;93.90;;;;;;4967071;28;20051;-66
2022/03/03 08:46:24;;;;;;;1.70;0.73;;;1.30;93.90;;;;;;4961207;28;20113;-64
2022/03/03 08:48:51;;;;;;;6.32;0.90;;;1.30;94.10;;;;;;4969224;28;20031;-68
2022/03/03 08:51:19;;;;;;;4.45;1.00;;;1.40;93.50;;;;;;4973947;28;20034;-68
2022/03/03 08:53:46;;;;;;;4.40;1.17;;;1.40;92.90;;;;;;4975307;28;20069;-68
2022/03/03 08:56:12;;;;;;;2.97;0.90;;;1.50;94.20;;;;;;4974700;28;20030;-69
2022/03/03 08:58:38;;;;;;;1.95;0.82;;;2.60;99.90;;;;;;4973567;28;20609;-73
2022/03/03 09:01:04;;;;;;;2.78;0.70;;;2.90;99.10;;;;;;4975372;28;20110;-72
2022/03/03 09:03:30;;;;;;;2.40;0.80;;;2.60;95.10;;;;;;4974784;28;20081;-70
2022/03/03 09:05:56;;;;;;;1.67;0.80;;;2.50;92.30;;;;;;4974064;28;20034;-69
2022/03/03 09:08:23;;;;;;;4.78;0.90;;;2.40;92.40;;;;;;4971793;28;20038;-69
2022/03/03 09:10:49;;;;;;;1.77;0.88;;;2.30;92.20;;;;;;4975379;28;20051;-70
2022/03/03 09:13:16;;;;;;;1.40;0.88;;;2.30;92.10;;;;;;4973773;28;20420;-69
2022/03/03 09:15:42;;;;;;;3.70;1.00;;;2.20;90.80;;;;;;4975030;28;20023;-70
2022/03/03 09:18:08;;;;;;;7.10;0.90;;;2.40;97.50;;;;;;4975069;28;20391;-70
2022/03/03 09:20:34;;;;;;;1.85;0.90;;;2.40;90.50;;;;;;4974964;28;20027;-69
2022/03/03 09:23:00;;;;;;;2.67;0.80;;;2.30;90.00;;;;;;4973799;28;20038;-72
2022/03/03 09:25:26;;;;;;;2.38;0.77;;;2.30;89.80;;;;;;4974962;28;20027;-69
2022/03/03 09:27:52;;;;;;;1.98;0.73;;;2.20;87.80;;;;;;4974850;28;20043;-70
2022/03/03 09:30:18;;;;;;;3.05;1.05;;;2.20;87.70;;;;;;4974767;28;20034;-69
2022/03/03 09:32:44;;;;;;;4.05;0.82;;;2.20;87.20;;;;;;4974875;28;20030;-70
2022/03/03 09:35:10;;;;;;;2.47;0.80;;;2.30;89.50;;;;;;4974648;28;20450;-70
2022/03/03 09:37:37;;;;;;;3.75;0.90;;;2.30;87.00;;;;;;4973263;28;20058;-70
2022/03/03 09:40:05;;;;;;;2.40;0.88;;;2.30;85.50;;;;;;4974687;28;20405;-70
2022/03/03 09:42:33;;;;;;;2.88;0.80;;;2.30;86.10;;;;;;4974471;28;20074;-70
2022/03/03 09:45:00;;;;;;;1.60;0.82;;;2.30;85.90;;;;;;4974111;28;20034;-70
2022/03/03 09:47:27;;;;;;;1.13;0.80;;;2.30;84.70;;;;;;4973594;28;20122;-70
2022/03/03 09:49:53;;;;;;;5.07;0.90;;;2.30;83.30;;;;;;4973222;28;20031;-69
2022/03/03 09:52:19;;;;;;;0.77;0.77;;;2.30;84.50;;;;;;4974602;28;20046;-70
2022/03/03 09:54:51;;;;;;;4.50;1.00;;;2.30;83.00;;;;;;4974740;28;20049;-70
2022/03/03 09:57:17;;;;;;;3.30;0.75;;;2.30;83.90;;;;;;4974534;28;20109;-70
2022/03/03 09:59:46;;;;;;;3.75;1.23;;;2.30;83.30;;;;;;4974113;28;20482;-70
2022/03/03 10:02:13;;;;;;;0.70;0.70;;;2.40;83.10;;;;;;4973872;28;20030;-70
2022/03/03 10:04:39;;;;;;;1.65;0.60;;;2.40;82.30;;;;;;4973969;28;20023;-71
2022/03/03 10:07:07;;;;;;;2.53;0.80;;;2.50;83.20;;;;;;4973798;28;20038;-70
2022/03/03 10:09:59;;;;;;;2.33;0.82;;;2.50;83.20;;;;;;4973821;28;20023;-70
2022/03/03 10:12:21;;;;;;;2.47;1.40;;;2.60;83.50;;;;;;4973730;28;20034;-71
2022/03/03 10:14:48;;;;;;;1.77;0.95;;;2.60;79.70;;;;;;4972554;28;20027;-71
2022/03/03 10:17:16;;;;;;;0.63;0.63;;;2.50;80.20;;;;;;4973698;28;20490;-71
2022/03/03 10:19:57;;;;;;;0.73;0.73;;;2.50;79.60;;;;;;4973756;28;20105;-70
2022/03/03 10:22:39;;;;;;;1.50;1.02;;;2.60;79.40;;;;;;4973743;28;20031;-70
2022/03/03 10:25:06;;;;;;;1.52;0.70;;;2.60;78.20;;;;;;4974015;28;20363;-71
2022/03/03 10:27:33;;;;;;;4.00;0.80;;;2.60;79.20;;;;;;4973832;28;20038;-70
2022/03/03 10:29:59;;;;;;;0.80;0.60;;;2.70;79.00;;;;;;4973781;28;20272;-70
2022/03/03 10:32:25;;;;;;;1.65;0.80;;;2.70;79.40;;;;;;4973658;28;20532;-71
2022/03/03 10:34:53;;;;;;;0.73;0.63;;;2.70;79.30;;;;;;4973858;28;20047;-71
2022/03/03 10:37:23;;;;;;;108.25;4.78;;;2.80;79.30;;;;;;4973468;28;20066;-71
2022/03/03 10:39:56;;;;;;;1.48;0.80;;;2.90;78.70;;;;;;4973988;28;20026;-70
2022/03/03 10:42:24;;;;;;;1.55;0.60;;;3.00;77.80;;;;;;4973623;28;20560;-71
2022/03/03 10:45:16;;;;;;;2.65;0.70;;;3.00;78.70;;;;;;4973061;28;20035;-71
2022/03/03 10:48:03;;;;;;;0.75;0.60;;;3.20;75.70;;;;;;4973470;28;20038;-71
2022/03/03 10:50:45;;;;;;;4.22;0.70;;;3.20;75.60;;;;;;4973122;28;20527;-70
2022/03/03 10:53:12;;;;;;;1.65;0.70;;;3.10;75.50;;;;;;4973669;28;20038;-70
2022/03/03 10:55:37;;;;;;;0.70;0.50;;;3.10;75.20;;;;;;4972998;28;20392;-70
2022/03/03 10:58:03;;;;;;;0.90;0.55;;;3.10;74.50;;;;;;4972944;28;20027;-69
2022/03/03 11:00:30;;;;;;;1.38;0.80;;;3.10;75.40;;;;;;4972581;28;20104;-71
2022/03/03 11:03:06;;;;;;;0.75;0.60;;;3.10;76.00;;;;;;4973446;28;20026;-70
2022/03/03 11:05:33;;;;;;;0.60;0.60;;;3.20;76.30;;;;;;4972991;28;20478;-70
2022/03/03 11:07:58;;;;;;;0.70;0.50;;;3.30;74.30;;;;;;4973124;28;20121;-70
2022/03/03 11:10:29;;;;;;;0.85;0.80;;;3.30;73.30;;;;;;4970891;28;20106;-67
2022/03/03 11:12:54;;;;;;;;;;;3.20;72.70;;;;;;4973610;28;20039;-68
2022/03/03 11:15:23;;;;;;;0.82;0.60;;;3.20;71.70;;;;;;4973235;28;20361;-67
2022/03/03 11:17:52;;;;;;;0.95;0.80;;;3.20;72.00;;;;;;4973113;28;20034;-68
2022/03/03 11:20:19;;;;;;;0.50;0.50;;;3.30;72.70;;;;;;4973370;28;20022;-68
2022/03/03 11:22:46;;;;;;;1.85;0.50;;;3.30;72.10;;;;;;4972906;28;20387;-68
2022/03/03 11:25:19;;;;;;;0.50;0.50;;;3.30;70.90;;;;;;4972891;28;20081;-69
2022/03/03 11:27:46;;;;;;;0.50;0.50;;;3.30;72.40;;;;;;4971619;28;20438;-68
2022/03/03 11:30:17;;;;;;;0.43;0.40;;;3.40;73.60;;;;;;4972987;28;20089;-68
2022/03/03 11:32:44;;;;;;;0.43;0.43;;;3.40;71.80;;;;;;4972923;28;20510;-71
2022/03/03 11:35:14;;;;;;;0.50;0.50;;;3.50;71.10;;;;;;4954820;28;20550;-71
2022/03/03 11:37:45;;;;;;;1.23;0.40;;;3.40;70.80;;;;;;4953364;28;20066;-70
2022/03/03 11:40:16;;;;;;;0.73;0.73;;;3.40;70.10;;;;;;4953713;28;20383;-70
2022/03/03 11:42:50;;;;;;;1.05;0.57;;;3.50;72.00;;;;;;4953532;29;20063;-71
2022/03/03 11:45:18;;;;;;;0.90;0.40;;;3.50;71.70;;;;;;4953612;28;20028;-71
2022/03/03 11:47:46;;;;;;;0.77;0.50;;;3.50;72.50;;;;;;4953366;28;20443;-70
2022/03/03 11:50:16;;;;;;;1.25;0.52;;;3.50;70.70;;;;;;4953479;28;20055;-71
2022/03/03 11:52:50;;;;;;;0.75;0.75;;;3.50;71.10;;;;;;4952252;28;20028;-71
2022/03/03 11:55:38;;;;;;;1.67;0.50;;;3.50;70.20;;;;;;4953519;28;20031;-70
2022/03/03 11:58:11;;;;;;;0.82;0.60;;;3.50;70.20;;;;;;4953600;29;20030;-71
2022/03/03 12:01:03;;;;;;;0.77;0.60;;;3.50;69.00;;;;;;4953661;28;20106;-70
2022/03/03 12:03:29;;;;;;;1.17;0.50;;;3.60;69.50;;;;;;4953491;28;20382;-70
2022/03/03 12:06:04;;;;;;;2.05;0.63;;;3.60;70.40;;;;;;4953444;28;20459;-70
2022/03/03 12:08:32;;;;;;;0.50;0.50;;;3.60;70.60;;;;;;4953395;28;20035;-70
2022/03/03 12:11:35;;;;;;;1.48;0.70;;;3.60;68.90;;;;;;4955360;28;20025;-70
2022/03/03 12:14:01;;;;;;;1.05;0.70;;;3.60;68.80;;;;;;4957352;28;20027;-70
2022/03/03 12:16:34;;;;;;;0.40;0.40;;;3.60;68.70;;;;;;4956894;29;20098;-71
2022/03/03 12:19:00;;;;;;;1.25;0.50;;;3.60;69.90;;;;;;4956774;28;20034;-70
2022/03/03 12:21:33;;;;;;;0.50;0.50;;;3.50;69.40;;;;;;4956784;29;20031;-70
2022/03/03 12:24:14;;;;;;;0.90;0.65;;;3.50;69.40;;;;;;4956734;28;20035;-69
2022/03/03 12:27:01;;;;;;;1.27;0.60;;;3.50;69.10;;;;;;4957193;28;20067;-71
2022/03/03 12:29:42;;;;;;;2.50;0.50;;;3.50;69.10;;;;;;4975907;28;20026;-72
2022/03/03 12:32:29;;;;;;;1.08;0.70;;;3.50;69.60;;;;;;4975292;28;20031;-72
2022/03/03 12:35:00;;;;;;;0.90;0.50;;;3.50;69.70;;;;;;4976178;28;20073;-71
2022/03/03 12:37:26;;;;;;;0.50;0.50;;;3.50;70.40;;;;;;4937014;29;20050;-72
2022/03/03 12:39:54;;;;;;;1.65;0.47;;;3.60;70.60;;;;;;4937302;29;20028;-72
2022/03/03 12:42:22;;;;;;;1.15;0.60;;;3.50;70.10;;;;;;4937414;29;20076;-72
2022/03/03 12:44:51;;;;;;;1.92;0.60;;;3.50;70.20;;;;;;4937076;29;20034;-72
2022/03/03 12:47:28;;;;;;;1.50;0.70;;;3.50;69.50;;;;;;4967674;28;20390;-72
2022/03/03 12:49:54;;;;;;;0.60;0.60;;;3.50;69.60;;;;;;4975642;28;20038;-72
2022/03/03 12:52:22;;;;;;;0.60;0.50;;;3.40;70.00;;;;;;4975726;28;20556;-72
2022/03/03 12:54:55;;;;;;;0.93;0.60;;;3.50;70.30;;;;;;4975579;28;20027;-72
2022/03/03 12:57:32;;;;;;;0.57;0.57;;;3.50;70.40;;;;;;4975294;28;20034;-72
2022/03/03 12:59:59;;;;;;;1.55;0.60;;;3.50;70.30;;;;;;4975673;28;20109;-72
2022/03/03 13:02:26;;;;;;;2.95;0.60;;;3.50;69.40;;;;;;4975163;28;20031;-72
2022/03/03 13:04:52;;;;;;;0.63;0.47;;;3.50;69.40;;;;;;4975081;28;20030;-72
2022/03/03 13:07:17;;;;;;;1.10;0.60;;;3.40;69.10;;;;;;4975248;28;20031;-71
2022/03/03 13:09:57;;;;;;;1.48;0.60;;;3.40;69.40;;;;;;4974776;28;20042;-72
2022/03/03 13:12:23;;;;;;;2.85;0.60;;;3.40;67.80;;;;;;4975010;28;20149;-72
2022/03/03 13:15:00;;;;;;;1.15;0.60;;;4.20;92.60;;;;;;4975425;28;20019;-71
2022/03/03 13:17:26;;;;;;;0.50;0.50;;;4.40;74.50;;;;;;4974930;28;20395;-72
2022/03/03 13:19:53;;;;;;;0.40;0.40;;;4.50;84.30;;;;;;4975033;28;20027;-71
2022/03/03 13:22:19;;;;;;;1.70;0.60;;;4.40;72.70;;;;;;4974066;28;20474;-71
2022/03/03 13:24:45;;;;;;;2.35;0.60;;;4.20;71.10;;;;;;4974848;28;20086;-71
2022/03/03 13:27:12;;;;;;;1.10;0.60;;;4.00;72.20;;;;;;4975714;28;20089;-71
2022/03/03 13:29:39;;;;;;;1.02;0.47;;;4.00;72.50;;;;;;4974636;28;20110;-70
2022/03/03 13:32:14;;;;;;;1.73;0.65;;;3.90;72.30;;;;;;4975018;28;20023;-70
2022/03/03 13:34:47;;;;;;;2.45;0.70;;;3.90;72.20;;;;;;4974892;28;20030;-70
2022/03/03 13:37:18;;;;;;;0.73;0.60;;;3.90;72.00;;;;;;4974448;28;20489;-70
2022/03/03 13:39:45;;;;;;;0.75;0.40;;;3.90;72.10;;;;;;4974485;28;20130;-69
2022/03/03 13:42:14;;;;;;;0.30;0.30;;;3.80;70.90;;;;;;4974637;28;20078;-70
2022/03/03 13:44:47;;;;;;;1.25;0.60;;;3.70;72.20;;;;;;4974108;28;20034;-68
2022/03/03 13:47:14;;;;;;;1.85;0.60;;;3.70;72.40;;;;;;4974535;28;20122;-68
2022/03/03 13:49:50;;;;;;;5.32;0.80;;;3.70;72.30;;;;;;4974434;28;20085;-72
2022/03/03 13:52:27;;;;;;;6.97;0.85;;;3.80;93.60;;;;;;4974569;28;20051;-68
2022/03/03 13:55:11;;;;;;;0.52;0.52;;;6.70;99.90;;;;;;4974595;28;20109;-70
2022/03/03 13:57:53;;;;;;;1.95;0.40;;;7.80;90.80;;;;;;4974929;28;20030;-70
2022/03/03 14:00:33;;;;;;;0.40;0.40;;;6.90;70.10;;;;;;4974342;28;20081;-70
2022/03/03 14:03:01;;;;;;;0.95;0.40;;;5.90;67.40;;;;;;4974326;28;20502;-70
2022/03/03 14:05:46;;;;;;;0.80;0.50;;;5.30;68.00;;;;;;4974090;28;20031;-70
2022/03/03 14:08:42;;;;;;;0.50;0.50;;;4.90;68.70;;;;;;4974543;28;20057;-71
2022/03/03 14:11:27;;;;;;;1.40;0.50;;;4.60;68.90;;;;;;4972965;28;20082;-71